createdAt,value
2022-10-15T00:02:28.832Z,5.97
2022-10-15T00:05:14.994Z,5.03
2022-10-15T00:08:01.027Z,5.37
2022-10-15T00:10:46.754Z,5.97
2022-10-15T00:13:33.224Z,5.77
2022-10-15T00:16:20.541Z,5.97
2022-10-15T00:19:06.889Z,6.27
2022-10-15T00:21:52.870Z,6.23
2022-10-15T00:24:38.653Z,6.43
2022-10-15T00:27:24.446Z,5.40
2022-10-15T00:30:10.659Z,7.67
2022-10-15T00:32:56.368Z,7.03
2022-10-15T00:35:42.852Z,6.93
2022-10-15T00:38:28.838Z,7.03
2022-10-15T00:41:16.444Z,6.00
2022-10-15T00:44:03.833Z,5.77
2022-10-15T00:47:09.813Z,6.73
2022-10-15T00:49:55.734Z,7.00
2022-10-15T00:52:53.679Z,7.03
2022-10-15T00:55:43.475Z,7.23
2022-10-15T00:58:32.357Z,7.50
2022-10-15T01:01:18.410Z,7.40
2022-10-15T01:04:04.846Z,7.10
2022-10-15T01:06:50.412Z,7.20
2022-10-15T01:09:36.190Z,6.87
2022-10-15T01:12:26.246Z,8.40
2022-10-15T01:15:17.625Z,7.23
2022-10-15T01:18:12.838Z,6.90
2022-10-15T01:21:21.994Z,7.77
2022-10-15T01:24:26.836Z,8.70
2022-10-15T01:27:25.178Z,8.90
2022-10-15T01:30:17.365Z,7.93
2022-10-15T01:33:09.285Z,10.53
2022-10-15T01:36:05.557Z,9.47
2022-10-15T01:38:59.206Z,11.10
2022-10-15T01:41:50.809Z,9.50
2022-10-15T01:44:42.078Z,11.10
2022-10-15T01:47:55.250Z,8.60
2022-10-15T01:50:45.146Z,10.07
2022-10-15T01:53:34.113Z,10.50
2022-10-15T01:56:22.497Z,9.70
2022-10-15T01:59:09.692Z,11.03
2022-10-15T02:01:58.432Z,11.07
2022-10-15T02:04:44.556Z,11.60
2022-10-15T02:07:33.671Z,12.17
2022-10-15T02:10:40.617Z,11.00
2022-10-15T02:13:34.928Z,12.13
2022-10-15T02:16:20.555Z,11.13
2022-10-15T02:19:18.914Z,11.40
2022-10-15T02:22:12.825Z,10.90
2022-10-15T02:25:01.269Z,11.97
2022-10-15T02:27:48.957Z,12.97
2022-10-15T02:30:35.310Z,12.27
2022-10-15T02:33:23.132Z,12.50
2022-10-15T02:36:09.345Z,13.20
2022-10-15T02:38:56.758Z,12.83
2022-10-15T02:41:45.092Z,12.30
2022-10-15T02:44:32.534Z,12.13
2022-10-15T02:47:18.365Z,11.80
2022-10-15T02:50:04.564Z,10.70
2022-10-15T02:52:50.231Z,11.00
2022-10-15T02:55:36.914Z,11.57
2022-10-15T02:58:22.838Z,10.93
2022-10-15T03:01:09.300Z,11.40
2022-10-15T03:03:55.005Z,10.87
2022-10-15T03:06:41.008Z,10.93
2022-10-15T03:09:27.033Z,10.93
2022-10-15T03:12:12.834Z,11.50
2022-10-15T03:14:58.672Z,11.37
2022-10-15T03:17:44.557Z,11.40
2022-10-15T03:20:29.999Z,11.60
2022-10-15T03:23:16.049Z,11.57
2022-10-15T03:26:03.889Z,11.57
2022-10-15T03:28:51.212Z,9.70
2022-10-15T03:31:50.207Z,11.43
2022-10-15T03:34:35.870Z,10.77
2022-10-15T03:37:22.039Z,9.70
2022-10-15T03:40:13.441Z,10.00
2022-10-15T03:43:00.155Z,10.30
2022-10-15T03:45:46.313Z,11.77
2022-10-15T03:48:40.927Z,10.50
2022-10-15T03:51:31.444Z,10.80
2022-10-15T03:54:23.280Z,9.77
2022-10-15T03:57:11.058Z,10.77
2022-10-15T04:00:03.943Z,9.90
2022-10-15T04:02:58.090Z,9.00
2022-10-15T04:05:54.242Z,8.53
2022-10-15T04:08:43.463Z,7.97
2022-10-15T04:11:40.205Z,8.53
2022-10-15T04:14:26.631Z,8.23
2022-10-15T04:17:13.027Z,8.37
2022-10-15T04:19:58.732Z,9.37
2022-10-15T04:22:45.416Z,10.17
2022-10-15T04:25:32.366Z,9.80
2022-10-15T04:28:18.337Z,9.43
2022-10-15T04:31:05.662Z,9.90
2022-10-15T04:33:51.403Z,10.63
2022-10-15T04:36:37.395Z,10.70
2022-10-15T04:39:29.060Z,11.20
2022-10-15T04:42:14.818Z,8.77
2022-10-15T04:45:00.738Z,9.20
2022-10-15T04:47:47.451Z,9.87
2022-10-15T04:50:35.271Z,10.53
2022-10-15T04:53:40.553Z,10.00
2022-10-15T04:56:26.456Z,10.27
2022-10-15T04:59:12.885Z,9.20
2022-10-15T05:02:18.398Z,10.33
2022-10-15T05:05:08.635Z,10.30
2022-10-15T05:08:04.218Z,10.83
2022-10-15T05:10:54.789Z,10.43
2022-10-15T05:13:40.374Z,10.93
2022-10-15T05:16:28.574Z,12.07
2022-10-15T05:19:16.830Z,11.30
2022-10-15T05:22:03.698Z,12.20
2022-10-15T05:24:51.190Z,9.43
2022-10-15T05:28:06.404Z,10.40
2022-10-15T05:30:52.113Z,11.50
2022-10-15T05:33:38.212Z,9.23
2022-10-15T05:36:28.961Z,9.77
2022-10-15T05:39:14.807Z,10.17
2022-10-15T05:42:02.763Z,10.53
2022-10-15T05:44:56.519Z,10.10
2022-10-15T05:47:42.163Z,10.67
2022-10-15T05:50:33.879Z,11.07
2022-10-15T05:53:21.522Z,10.37
2022-10-15T05:56:11.247Z,10.37
2022-10-15T05:58:58.259Z,9.80
2022-10-15T06:01:46.578Z,10.43
2022-10-15T06:04:35.568Z,11.20
2022-10-15T06:07:21.842Z,10.80
2022-10-15T06:10:07.834Z,10.10
2022-10-15T06:12:53.685Z,10.20
2022-10-15T06:15:40.766Z,11.50
2022-10-15T06:18:28.473Z,9.00
2022-10-15T06:21:14.366Z,9.93
2022-10-15T06:24:00.385Z,8.67
2022-10-15T06:26:46.376Z,9.10
2022-10-15T06:29:32.112Z,9.00
2022-10-15T06:32:20.594Z,9.03
2022-10-15T06:35:06.684Z,8.50
2022-10-15T06:37:52.891Z,10.20
2022-10-15T06:40:39.528Z,9.97
2022-10-15T06:43:25.100Z,11.00
2022-10-15T06:46:10.985Z,10.27
2022-10-15T06:48:57.412Z,9.47
2022-10-15T06:51:43.304Z,8.93
2022-10-15T06:54:29.048Z,8.10
2022-10-15T06:57:14.613Z,8.07
2022-10-15T07:00:00.404Z,8.23
2022-10-15T07:02:45.989Z,8.10
2022-10-15T07:05:31.928Z,6.83
2022-10-15T07:08:19.339Z,8.47
2022-10-15T07:11:06.356Z,7.03
2022-10-15T07:13:51.838Z,7.13
2022-10-15T07:16:39.559Z,6.80
2022-10-15T07:19:25.197Z,8.30
2022-10-15T07:22:11.290Z,7.60
2022-10-15T07:24:56.921Z,6.53
2022-10-15T07:27:43.296Z,7.30
2022-10-15T07:30:29.603Z,7.67
2022-10-15T07:33:15.306Z,7.90
2022-10-15T07:36:12.700Z,6.73
2022-10-15T07:39:00.374Z,6.40
2022-10-15T07:41:46.594Z,6.37
2022-10-15T07:44:32.112Z,6.83
2022-10-15T07:47:19.157Z,6.93
2022-10-15T07:50:04.799Z,6.20
2022-10-15T07:52:50.858Z,6.40
2022-10-15T07:55:36.717Z,6.03
2022-10-15T07:58:22.521Z,5.47
2022-10-15T08:01:09.423Z,6.20
2022-10-15T08:03:55.339Z,6.90
2022-10-15T08:06:40.880Z,5.93
2022-10-15T08:09:26.677Z,5.27
2022-10-15T08:12:12.418Z,4.70
2022-10-15T08:15:00.987Z,5.20
2022-10-15T08:17:46.734Z,5.27
2022-10-15T08:20:33.992Z,5.13
2022-10-15T08:23:21.417Z,5.33
2022-10-15T08:26:10.396Z,4.30
2022-10-15T08:28:57.288Z,4.10
2022-10-15T08:31:45.696Z,4.90
2022-10-15T08:34:31.472Z,5.17
2022-10-15T08:37:17.159Z,4.93
2022-10-15T08:40:03.574Z,4.83
2022-10-15T08:42:50.893Z,4.90
2022-10-15T08:45:44.940Z,4.60
2022-10-15T08:48:45.157Z,4.50
2022-10-15T08:51:47.219Z,5.80
2022-10-15T08:54:35.306Z,4.73
2022-10-15T08:57:34.437Z,3.70
2022-10-15T09:00:22.010Z,5.17
2022-10-15T09:03:14.060Z,4.97
2022-10-15T09:06:18.184Z,4.00
2022-10-15T09:09:27.546Z,4.50
2022-10-15T09:12:32.301Z,3.80
2022-10-15T09:15:22.575Z,3.90
2022-10-15T09:18:17.686Z,5.20
2022-10-15T09:21:05.047Z,4.53
2022-10-15T09:23:50.698Z,5.13
2022-10-15T09:26:48.884Z,5.47
2022-10-15T09:29:46.001Z,4.70
2022-10-15T09:32:37.798Z,4.90
2022-10-15T09:35:36.176Z,5.33
2022-10-15T09:38:22.414Z,5.30
2022-10-15T09:41:17.409Z,4.87
2022-10-15T09:44:05.794Z,5.30
2022-10-15T09:46:57.296Z,3.87
2022-10-15T09:49:43.231Z,4.13
2022-10-15T09:52:38.118Z,3.90
2022-10-15T09:55:27.718Z,3.87
2022-10-15T09:58:13.728Z,3.97
2022-10-15T10:00:59.597Z,3.97
2022-10-15T10:03:54.475Z,3.43
2022-10-15T10:06:44.167Z,4.20
2022-10-15T10:09:55.387Z,4.37
2022-10-15T10:12:44.178Z,4.20
2022-10-15T10:15:42.682Z,4.47
2022-10-15T10:18:28.839Z,4.70
2022-10-15T10:21:26.954Z,4.10
2022-10-15T10:24:20.796Z,3.67
2022-10-15T10:27:17.696Z,3.60
2022-10-15T10:30:07.578Z,3.80
2022-10-15T10:32:59.056Z,3.77
2022-10-15T10:35:46.434Z,3.40
2022-10-15T10:38:41.164Z,3.13
2022-10-15T10:41:47.000Z,4.40
2022-10-15T10:44:37.433Z,3.63
2022-10-15T10:47:27.145Z,3.10
2022-10-15T10:50:28.832Z,3.27
2022-10-15T10:53:19.534Z,3.40
2022-10-15T10:56:07.045Z,3.33
2022-10-15T10:58:56.076Z,2.93
2022-10-15T11:01:42.639Z,3.27
2022-10-15T11:04:31.181Z,2.73
2022-10-15T11:07:55.566Z,3.40
2022-10-15T11:11:05.700Z,3.20
2022-10-15T11:13:51.358Z,3.47
2022-10-15T11:16:40.048Z,3.20
2022-10-15T11:22:44.639Z,3.57
2022-10-15T11:25:41.196Z,3.17
2022-10-15T11:28:52.188Z,3.30
2022-10-15T11:31:49.035Z,3.87
2022-10-15T11:35:04.293Z,3.90
2022-10-15T11:37:56.103Z,4.93
2022-10-15T11:40:42.056Z,4.80
2022-10-15T11:43:40.159Z,4.80
2022-10-15T11:46:46.481Z,4.93
2022-10-15T11:49:51.248Z,4.63
2022-10-15T11:52:55.203Z,4.80
2022-10-15T11:55:43.844Z,4.80
2022-10-15T11:58:43.625Z,4.87
2022-10-15T12:01:48.457Z,4.80
2022-10-15T12:04:39.189Z,4.77
2022-10-15T12:07:26.431Z,4.67
2022-10-15T12:10:15.146Z,4.60
2022-10-15T12:13:09.633Z,5.10
2022-10-15T12:16:07.835Z,5.20
2022-10-15T12:19:05.778Z,4.13
2022-10-15T12:21:57.815Z,4.30
2022-10-15T12:24:49.984Z,4.83
2022-10-15T12:27:36.808Z,4.93
2022-10-15T12:30:24.074Z,4.50
2022-10-15T12:33:29.734Z,4.50
2022-10-15T12:36:22.026Z,4.20
2022-10-15T12:39:27.796Z,4.73
2022-10-15T12:42:26.687Z,5.23
2022-10-15T12:45:21.459Z,4.57
2022-10-15T12:48:08.426Z,4.93
2022-10-15T12:51:14.458Z,4.20
2022-10-15T12:54:02.530Z,3.60
2022-10-15T12:56:48.395Z,4.57
2022-10-15T12:59:48.756Z,4.20
2022-10-15T13:02:45.656Z,4.07
2022-10-15T13:05:35.747Z,3.83
2022-10-15T13:08:30.260Z,4.13
2022-10-15T13:11:24.658Z,3.50
2022-10-15T13:14:13.633Z,3.63
2022-10-15T13:17:03.000Z,5.90
2022-10-15T13:20:07.917Z,3.63
2022-10-15T13:23:01.872Z,3.90
2022-10-15T13:26:12.031Z,3.43
2022-10-15T13:28:58.314Z,3.10
2022-10-15T13:31:45.054Z,3.77
2022-10-15T13:34:32.538Z,3.10
2022-10-15T13:37:20.670Z,3.07
2022-10-15T13:40:08.198Z,3.60
2022-10-15T13:43:12.964Z,2.70
2022-10-15T13:45:59.785Z,3.10
2022-10-15T13:48:45.705Z,2.93
2022-10-15T13:51:38.096Z,2.43
2022-10-15T13:54:25.274Z,2.60
2022-10-15T13:57:13.412Z,5.20
2022-10-15T13:59:59.869Z,2.43
2022-10-15T14:02:45.517Z,11.40
2022-10-15T14:05:31.334Z,2.80
2022-10-15T14:08:19.804Z,2.57
2022-10-15T14:11:05.579Z,2.40
2022-10-15T14:13:54.762Z,2.70
2022-10-15T14:16:42.496Z,2.70
2022-10-15T14:19:32.760Z,2.73
2022-10-15T14:22:20.104Z,2.80
2022-10-15T14:25:10.141Z,2.60
2022-10-15T14:27:56.077Z,2.30
2022-10-15T14:30:44.198Z,2.23
2022-10-15T14:33:33.363Z,2.03
2022-10-15T14:36:23.048Z,2.27
2022-10-15T14:39:26.784Z,2.20
2022-10-15T14:42:28.577Z,2.20
2022-10-15T14:45:38.376Z,4.00
2022-10-15T14:48:28.681Z,2.53
2022-10-15T14:51:18.398Z,2.20
2022-10-15T14:54:04.034Z,1.77
2022-10-15T14:56:51.744Z,1.83
2022-10-15T14:59:38.125Z,1.80
2022-10-15T15:02:28.847Z,2.20
2022-10-15T15:05:14.464Z,1.70
2022-10-15T15:08:06.387Z,1.90
2022-10-15T15:10:55.021Z,2.10
2022-10-15T15:13:42.337Z,1.93
2022-10-15T15:16:28.718Z,2.37
2022-10-15T15:19:14.233Z,2.10
2022-10-15T15:21:59.773Z,2.40
2022-10-15T15:24:45.646Z,2.50
2022-10-15T15:27:37.014Z,2.77
2022-10-15T15:30:25.105Z,3.30
2022-10-15T15:33:15.184Z,2.40
2022-10-15T15:36:02.338Z,2.50
2022-10-15T15:38:47.866Z,2.30
2022-10-15T15:41:34.820Z,3.13
2022-10-15T15:44:20.697Z,2.90
2022-10-15T15:47:06.406Z,2.20
2022-10-15T15:49:52.545Z,2.40
2022-10-15T15:52:42.977Z,2.33
2022-10-15T15:55:29.701Z,2.43
2022-10-15T15:58:15.119Z,2.70
2022-10-15T16:01:01.076Z,2.30
2022-10-15T16:03:46.866Z,2.03
2022-10-15T16:06:32.795Z,2.90
2022-10-15T16:09:20.141Z,2.20
2022-10-15T16:12:05.731Z,1.90
2022-10-15T16:14:51.585Z,1.87
2022-10-15T16:17:37.753Z,1.90
2022-10-15T16:20:24.071Z,2.00
2022-10-15T16:23:09.756Z,1.90
2022-10-15T16:25:58.409Z,2.43
2022-10-15T16:28:44.471Z,2.33
2022-10-15T16:31:34.540Z,2.20
2022-10-15T16:34:20.411Z,1.90
2022-10-15T16:37:06.192Z,2.17
2022-10-15T16:39:52.076Z,2.10
2022-10-15T16:42:37.550Z,1.90
2022-10-15T16:45:23.323Z,2.10
2022-10-15T16:48:10.812Z,1.80
2022-10-15T16:51:05.553Z,1.93
2022-10-15T16:53:52.017Z,2.20
2022-10-15T16:56:38.055Z,2.10
2022-10-15T16:59:23.883Z,2.30
2022-10-15T17:02:10.329Z,2.10
2022-10-15T17:04:56.404Z,2.20
2022-10-15T17:07:43.299Z,2.60
2022-10-15T17:10:28.836Z,2.60
2022-10-15T17:13:14.765Z,3.80
2022-10-15T17:16:12.491Z,2.90
2022-10-15T17:18:58.853Z,2.27
2022-10-15T17:21:47.156Z,2.73
2022-10-15T17:24:34.193Z,2.87
2022-10-15T17:27:19.958Z,2.90
2022-10-15T17:30:05.947Z,3.13
2022-10-15T17:32:53.509Z,3.03
2022-10-15T17:35:39.323Z,3.60
2022-10-15T17:38:25.251Z,3.20
2022-10-15T17:41:12.770Z,3.87
2022-10-15T17:43:58.466Z,3.27
2022-10-15T17:46:44.563Z,3.87
2022-10-15T17:49:30.391Z,4.10
2022-10-15T17:52:16.719Z,3.47
2022-10-15T17:55:02.804Z,3.60
2022-10-15T17:57:48.615Z,3.13
2022-10-15T18:00:36.611Z,3.70
2022-10-15T18:03:22.941Z,3.47
2022-10-15T18:06:10.075Z,4.20
2022-10-15T18:08:56.079Z,3.17
2022-10-15T18:11:45.344Z,3.97
2022-10-15T18:14:31.137Z,4.00
2022-10-15T18:17:18.664Z,2.90
2022-10-15T18:20:04.636Z,2.60
2022-10-15T18:22:51.116Z,3.03
2022-10-15T18:25:38.392Z,3.60
2022-10-15T18:28:24.400Z,3.70
2022-10-15T18:31:12.096Z,3.20
2022-10-15T18:33:57.766Z,3.43
2022-10-15T18:36:43.945Z,3.30
2022-10-15T18:39:30.232Z,4.30
2022-10-15T18:42:15.881Z,4.07
2022-10-15T18:45:01.769Z,4.40
2022-10-15T18:47:50.130Z,5.03
2022-10-15T18:53:37.758Z,3.80
2022-10-15T18:56:25.613Z,3.63
2022-10-15T18:59:11.617Z,3.70
2022-10-15T19:01:57.686Z,3.43
2022-10-15T19:04:44.925Z,4.20
2022-10-15T19:07:31.753Z,4.53
2022-10-15T19:10:19.937Z,3.63
2022-10-15T19:13:08.157Z,3.37
2022-10-15T19:15:53.956Z,4.50
2022-10-15T19:18:39.534Z,4.30
2022-10-15T19:21:25.483Z,3.37
2022-10-15T19:24:11.336Z,3.80
2022-10-15T19:26:57.436Z,3.67
2022-10-15T19:29:43.222Z,3.40
2022-10-15T19:32:31.076Z,4.63
2022-10-15T19:35:17.063Z,3.90
2022-10-15T19:38:02.585Z,4.47
2022-10-15T19:40:50.250Z,3.77
2022-10-15T19:43:36.730Z,3.63
2022-10-15T19:46:22.271Z,3.93
2022-10-15T19:49:09.297Z,4.10
2022-10-15T19:51:55.623Z,3.43
2022-10-15T19:54:41.286Z,3.23
2022-10-15T19:57:27.916Z,4.33
2022-10-15T20:00:14.796Z,3.10
2022-10-15T20:03:01.235Z,3.80
2022-10-15T20:05:47.266Z,3.60
2022-10-15T20:08:33.204Z,3.80
2022-10-15T20:11:19.701Z,4.20
2022-10-15T20:14:05.586Z,5.07
2022-10-15T20:16:51.405Z,4.00
2022-10-15T20:19:37.325Z,4.90
2022-10-15T20:22:23.385Z,5.30
2022-10-15T20:25:09.278Z,5.90
2022-10-15T20:27:55.262Z,4.80
2022-10-15T20:30:40.892Z,4.80
2022-10-15T20:33:26.986Z,5.30
2022-10-15T20:36:15.876Z,4.77
2022-10-15T20:39:04.066Z,4.63
2022-10-15T20:41:50.649Z,5.00
2022-10-15T20:44:36.622Z,4.03
2022-10-15T20:47:23.030Z,4.60
2022-10-15T20:50:12.452Z,4.47
2022-10-15T20:52:58.089Z,4.30
2022-10-15T20:55:43.910Z,3.67
2022-10-15T20:58:30.182Z,5.70
2022-10-15T21:01:16.241Z,3.60
2022-10-15T21:04:02.298Z,5.00
2022-10-15T21:06:48.768Z,5.13
2022-10-15T21:09:34.737Z,4.10
2022-10-15T21:12:20.535Z,4.40
2022-10-15T21:15:06.790Z,5.50
2022-10-15T21:17:52.457Z,5.07
2022-10-15T21:20:38.180Z,4.10
2022-10-15T21:23:24.105Z,3.00
2022-10-15T21:26:11.334Z,3.60
2022-10-15T21:29:00.510Z,3.70
2022-10-15T21:31:47.587Z,4.00
2022-10-15T21:34:33.395Z,3.53
2022-10-15T21:37:19.156Z,4.10
2022-10-15T21:40:07.658Z,3.73
2022-10-15T21:42:53.364Z,4.50
2022-10-15T21:45:38.882Z,4.03
2022-10-15T21:48:24.767Z,3.50
2022-10-15T21:51:12.862Z,3.90
2022-10-15T21:53:59.424Z,3.10
2022-10-15T21:56:45.401Z,3.30
2022-10-15T21:59:33.200Z,3.40
2022-10-15T22:05:10.216Z,3.47
2022-10-15T22:07:56.626Z,2.90
2022-10-15T22:10:42.495Z,2.90
2022-10-15T22:13:28.469Z,3.23
2022-10-15T22:16:16.997Z,3.33
2022-10-15T22:19:03.186Z,2.80
2022-10-15T22:21:49.616Z,2.90
2022-10-15T22:24:35.513Z,4.30
2022-10-15T22:27:21.650Z,3.43
2022-10-15T22:30:07.996Z,3.60
2022-10-15T22:32:54.292Z,2.53
2022-10-15T22:35:40.315Z,2.77
2022-10-15T22:38:26.196Z,2.80
2022-10-15T22:41:14.265Z,3.00
2022-10-15T22:44:00.805Z,2.70
2022-10-15T22:46:49.166Z,4.20
2022-10-15T22:49:35.283Z,3.00
2022-10-15T22:52:21.272Z,2.40
2022-10-15T22:55:07.523Z,2.80
2022-10-15T22:57:53.524Z,2.73
2022-10-15T23:00:39.767Z,2.50
2022-10-15T23:03:25.713Z,2.53
2022-10-15T23:06:12.199Z,3.00
2022-10-15T23:08:58.738Z,2.33
2022-10-15T23:11:45.425Z,2.90
2022-10-15T23:14:31.219Z,2.97
2022-10-15T23:17:17.319Z,4.60
2022-10-15T23:20:03.453Z,3.47
2022-10-15T23:22:49.243Z,3.70
2022-10-15T23:25:38.814Z,4.47
2022-10-15T23:28:25.610Z,4.50
2022-10-15T23:31:21.721Z,5.23
2022-10-15T23:34:07.905Z,5.90
2022-10-15T23:36:54.161Z,5.60
2022-10-15T23:39:40.738Z,5.47
2022-10-15T23:42:26.891Z,5.37
2022-10-15T23:45:12.660Z,5.90
2022-10-15T23:47:58.700Z,5.40
2022-10-15T23:50:44.675Z,6.27
2022-10-15T23:53:32.566Z,5.50
2022-10-15T23:56:19.060Z,6.43
2022-10-15T23:59:05.383Z,5.77
